Time;durP1;ratioP1;P1;durP2;ratioP2;P2;SDS_P1;SDS_P2;PMS_P1;PMS_P2;Temp;Humidity;BMP_temperature;BMP_pressure;BME280_temperature;BME280_humidity;BME280_pressure;Samples;Min_cycle;Max_cycle;Signal;HPM_P1;HPM_P2
2021/04/19 00:00:10;;;;;;;25.52;15.80;;;6.90;93.40;;;;;;5120067;27;20475;-72
2021/04/19 00:02:36;;;;;;;24.02;15.77;;;6.80;93.40;;;;;;5120216;27;20044;-72
2021/04/19 00:05:05;;;;;;;23.77;15.70;;;6.90;93.40;;;;;;5119867;27;20038;-72
2021/04/19 00:07:31;;;;;;;27.35;16.85;;;6.80;93.40;;;;;;5120165;27;20040;-72
2021/04/19 00:09:58;;;;;;;27.55;16.23;;;6.90;93.50;;;;;;5120436;27;20043;-72
2021/04/19 00:12:23;;;;;;;28.70;16.60;;;6.80;93.50;;;;;;5119338;28;20042;-72
2021/04/19 00:14:49;;;;;;;21.45;15.52;;;6.90;93.70;;;;;;5120247;27;20479;-72
2021/04/19 00:17:15;;;;;;;26.67;15.63;;;6.80;93.60;;;;;;5120618;27;20039;-72
2021/04/19 00:19:41;;;;;;;23.42;16.98;;;6.90;93.50;;;;;;5118799;28;20039;-72
2021/04/19 00:22:06;;;;;;;24.55;17.02;;;6.90;93.40;;;;;;5120080;27;20038;-72
2021/04/19 00:24:32;;;;;;;26.17;16.08;;;6.90;93.50;;;;;;5120042;28;20456;-72
2021/04/19 00:26:58;;;;;;;27.15;17.20;;;6.90;93.50;;;;;;5119861;27;20097;-72
2021/04/19 00:29:24;;;;;;;27.38;16.83;;;6.90;93.50;;;;;;5120044;27;20130;-72
2021/04/19 00:31:50;;;;;;;24.00;15.73;;;6.80;93.70;;;;;;5118695;28;20039;-72
2021/04/19 00:34:15;;;;;;;30.52;17.75;;;6.90;93.70;;;;;;5117378;27;20401;-72
2021/04/19 00:36:41;;;;;;;30.42;16.45;;;6.90;93.60;;;;;;5116618;28;20477;-72
2021/04/19 00:39:10;;;;;;;23.67;16.35;;;6.90;93.60;;;;;;5116668;28;20480;-72
2021/04/19 00:41:36;;;;;;;25.77;16.38;;;6.90;93.80;;;;;;5116890;28;20476;-72
2021/04/19 00:44:02;;;;;;;26.88;17.30;;;7.00;93.60;;;;;;5117104;28;20114;-72
2021/04/19 00:46:28;;;;;;;25.23;17.00;;;6.90;93.80;;;;;;5116471;28;20035;-72
2021/04/19 00:48:54;;;;;;;27.00;17.00;;;6.90;93.90;;;;;;5117114;28;20036;-72
2021/04/19 00:51:19;;;;;;;27.17;18.05;;;6.90;93.70;;;;;;5116643;28;20479;-72
2021/04/19 00:53:46;;;;;;;25.85;17.48;;;6.90;93.80;;;;;;5116513;28;20479;-72
2021/04/19 00:56:12;;;;;;;26.67;17.63;;;6.90;93.80;;;;;;5116620;27;20053;-72
2021/04/19 00:58:40;;;;;;;30.48;18.10;;;6.90;94.00;;;;;;5116857;28;20066;-72
2021/04/19 01:01:07;;;;;;;28.48;19.23;;;6.80;93.90;;;;;;5116146;28;20441;-72
2021/04/19 01:03:34;;;;;;;28.02;17.25;;;6.90;94.00;;;;;;5116265;28;20115;-72
2021/04/19 01:06:00;;;;;;;25.00;17.58;;;6.90;94.00;;;;;;5116212;28;20040;-72
2021/04/19 01:08:26;;;;;;;24.58;16.75;;;6.90;94.20;;;;;;5115987;28;20058;-72
2021/04/19 01:10:52;;;;;;;28.63;18.48;;;6.90;94.00;;;;;;5116487;28;20044;-72
2021/04/19 01:13:18;;;;;;;34.65;17.92;;;7.00;94.20;;;;;;5116631;28;20085;-72
2021/04/19 01:15:43;;;;;;;29.60;18.38;;;7.00;94.10;;;;;;5115920;28;20058;-72
2021/04/19 01:18:09;;;;;;;26.73;18.65;;;7.10;94.10;;;;;;5115957;28;20105;-72
2021/04/19 01:20:40;;;;;;;28.40;18.35;;;7.10;94.00;;;;;;5116198;28;20044;-72
2021/04/19 01:23:05;;;;;;;28.63;17.75;;;7.10;94.20;;;;;;5116216;28;20070;-72
2021/04/19 01:25:31;;;;;;;26.95;17.90;;;7.10;94.00;;;;;;5115668;28;20078;-72
2021/04/19 01:27:58;;;;;;;29.08;18.65;;;7.20;94.20;;;;;;5115591;27;20039;-72
2021/04/19 01:30:29;;;;;;;29.30;18.60;;;7.20;94.00;;;;;;5115550;28;20071;-72
2021/04/19 01:32:54;;;;;;;26.10;17.15;;;7.20;94.10;;;;;;5115554;28;20060;-72
2021/04/19 01:35:20;;;;;;;28.30;18.77;;;7.30;93.90;;;;;;5115600;28;20476;-72
2021/04/19 01:37:46;;;;;;;34.42;19.90;;;7.30;93.90;;;;;;5115836;28;20482;-72
2021/04/19 01:40:16;;;;;;;24.58;16.60;;;7.40;94.00;;;;;;5115904;28;20040;-72
2021/04/19 01:42:43;;;;;;;31.58;19.90;;;7.40;93.90;;;;;;5115586;28;20048;-72
2021/04/19 01:45:10;;;;;;;31.13;19.42;;;7.50;94.00;;;;;;5115269;28;20395;-72
2021/04/19 01:47:35;;;;;;;34.65;20.80;;;7.50;94.00;;;;;;5115439;28;20040;-72
2021/04/19 01:50:09;;;;;;;36.55;22.50;;;7.50;94.10;;;;;;5115958;28;20051;-72
2021/04/19 01:52:35;;;;;;;31.50;20.92;;;7.60;94.10;;;;;;5115221;27;20039;-72
2021/04/19 01:55:02;;;;;;;36.40;24.05;;;7.60;94.00;;;;;;5113765;28;20081;-72
2021/04/19 01:57:28;;;;;;;38.17;23.85;;;7.70;94.00;;;;;;5115838;28;20039;-72
2021/04/19 01:59:54;;;;;;;40.70;25.10;;;7.80;94.00;;;;;;5115103;28;20042;-72
2021/04/19 02:02:27;;;;;;;38.45;22.13;;;7.80;93.90;;;;;;5115317;28;20040;-72
2021/04/19 02:05:15;;;;;;;33.08;20.30;;;8.00;93.70;;;;;;5115189;28;20034;-72
2021/04/19 02:08:08;;;;;;;26.25;18.80;;;8.00;93.60;;;;;;5114858;28;20122;-72
2021/04/19 02:11:01;;;;;;;31.70;20.20;;;8.00;93.50;;;;;;5114900;28;20118;-72
2021/04/19 02:13:36;;;;;;;33.40;19.17;;;8.00;93.40;;;;;;5115380;28;20050;-72
2021/04/19 02:16:22;;;;;;;28.83;18.90;;;8.00;93.40;;;;;;5114688;28;20276;-72
2021/04/19 02:18:55;;;;;;;27.48;18.48;;;8.10;93.50;;;;;;5115144;28;20494;-72
2021/04/19 02:21:34;;;;;;;29.90;19.70;;;8.20;93.40;;;;;;5115053;28;20046;-72
2021/04/19 02:24:05;;;;;;;26.38;18.15;;;8.20;93.20;;;;;;5114657;28;20035;-72
2021/04/19 02:26:34;;;;;;;29.60;17.52;;;8.20;93.20;;;;;;5114952;28;20059;-72
2021/04/19 02:29:07;;;;;;;29.13;18.25;;;8.30;93.20;;;;;;5114545;28;20111;-72
2021/04/19 02:31:37;;;;;;;26.52;18.20;;;8.30;93.00;;;;;;5114820;28;20058;-72
2021/04/19 02:34:08;;;;;;;25.25;17.65;;;8.30;92.90;;;;;;5114833;27;20455;-72
2021/04/19 02:36:39;;;;;;;26.58;18.02;;;8.40;93.10;;;;;;5114751;28;20466;-72
2021/04/19 02:39:05;;;;;;;24.75;17.05;;;8.40;92.90;;;;;;5114385;28;20085;-72
2021/04/19 02:41:35;;;;;;;26.83;16.90;;;8.50;92.80;;;;;;5114579;28;20058;-72
2021/04/19 02:44:01;;;;;;;27.02;17.08;;;8.50;92.70;;;;;;5113356;28;20036;-72
2021/04/19 02:46:32;;;;;;;24.73;15.70;;;8.40;92.80;;;;;;5113927;28;20039;-72
2021/04/19 02:48:58;;;;;;;27.88;16.70;;;8.40;92.90;;;;;;5114762;28;20036;-72
2021/04/19 02:51:24;;;;;;;25.45;17.27;;;8.40;92.80;;;;;;5114839;28;20390;-72
2021/04/19 02:53:51;;;;;;;24.88;16.25;;;8.40;92.80;;;;;;5112921;28;20042;-72
2021/04/19 02:56:20;;;;;;;28.40;16.45;;;8.40;92.80;;;;;;5112817;28;20066;-72
2021/04/19 02:58:49;;;;;;;22.88;14.55;;;8.40;92.70;;;;;;5113537;28;20067;-72
2021/04/19 03:01:26;;;;;;;24.92;16.77;;;8.40;92.70;;;;;;5114333;28;20035;-72
2021/04/19 03:03:58;;;;;;;22.65;16.38;;;8.40;92.80;;;;;;5113956;28;20047;-72
2021/04/19 03:06:26;;;;;;;24.52;16.15;;;8.40;92.70;;;;;;5113611;28;20039;-72
2021/04/19 03:08:57;;;;;;;24.45;14.80;;;8.40;92.80;;;;;;5114500;28;20039;-72
2021/04/19 03:11:26;;;;;;;26.13;16.23;;;8.40;92.90;;;;;;5114301;28;20043;-72
2021/04/19 03:13:54;;;;;;;24.83;15.10;;;8.40;92.70;;;;;;5113840;28;20127;-72
2021/04/19 03:16:24;;;;;;;24.00;15.48;;;8.40;92.80;;;;;;5112431;28;20044;-72
2021/04/19 03:18:53;;;;;;;23.38;15.65;;;8.40;92.80;;;;;;5112826;28;20050;-72
2021/04/19 03:21:24;;;;;;;23.08;16.33;;;8.30;92.90;;;;;;5113897;28;20067;-72
2021/04/19 03:23:53;;;;;;;21.10;14.23;;;8.30;93.10;;;;;;5113694;28;20042;-72
2021/04/19 03:26:21;;;;;;;23.70;15.02;;;8.30;93.00;;;;;;5113616;28;20036;-72
2021/04/19 03:28:49;;;;;;;21.88;14.85;;;8.20;93.10;;;;;;5114534;28;20039;-72
2021/04/19 03:31:22;;;;;;;22.23;14.25;;;8.30;92.80;;;;;;5114418;28;20035;-72
2021/04/19 03:33:51;;;;;;;27.70;14.13;;;8.20;92.80;;;;;;5113970;28;20049;-72
2021/04/19 03:36:19;;;;;;;20.50;14.57;;;8.20;92.90;;;;;;5113747;28;20036;-72
2021/04/19 03:38:47;;;;;;;22.83;14.00;;;8.20;92.80;;;;;;5114165;28;20035;-71
2021/04/19 03:41:15;;;;;;;19.48;13.75;;;8.10;92.90;;;;;;5113449;28;20036;-72
2021/04/19 03:43:45;;;;;;;23.95;14.38;;;8.10;92.80;;;;;;5114247;28;20040;-72
2021/04/19 03:46:15;;;;;;;21.70;13.77;;;8.10;92.80;;;;;;5113342;28;20036;-72
2021/04/19 03:48:43;;;;;;;21.77;13.23;;;8.20;92.80;;;;;;5113845;28;20120;-72
2021/04/19 03:51:11;;;;;;;21.25;14.68;;;8.20;92.80;;;;;;5114118;28;20050;-72
2021/04/19 03:53:38;;;;;;;21.60;13.88;;;8.10;92.90;;;;;;5113462;28;20480;-72
2021/04/19 03:56:05;;;;;;;21.92;13.65;;;8.10;92.80;;;;;;5113221;28;20085;-72
2021/04/19 03:58:32;;;;;;;24.52;14.57;;;8.10;92.80;;;;;;5113781;28;20089;-72
2021/04/19 04:01:02;;;;;;;25.90;13.52;;;8.10;92.90;;;;;;5113252;28;20120;-72
2021/04/19 04:03:29;;;;;;;23.60;14.05;;;8.10;92.80;;;;;;5114507;28;20046;-72
2021/04/19 04:05:57;;;;;;;22.35;14.25;;;8.00;92.90;;;;;;5113080;28;20042;-72
2021/04/19 04:08:23;;;;;;;26.52;15.02;;;7.90;92.90;;;;;;5113232;28;20036;-72
2021/04/19 04:10:49;;;;;;;25.35;16.92;;;7.90;93.00;;;;;;5116870;28;20089;-72
2021/04/19 04:13:15;;;;;;;27.70;17.20;;;7.90;93.10;;;;;;5117453;28;20040;-72
2021/04/19 04:15:59;;;;;;;31.55;17.27;;;7.90;93.10;;;;;;5117014;28;20039;-72
2021/04/19 04:18:25;;;;;;;27.20;17.38;;;7.90;93.10;;;;;;5117125;28;20546;-72
2021/04/19 04:20:51;;;;;;;27.05;18.02;;;7.90;93.00;;;;;;5116823;27;20483;-72
2021/04/19 04:23:17;;;;;;;29.98;16.25;;;7.80;93.00;;;;;;5117518;28;20032;-72
2021/04/19 04:25:44;;;;;;;30.38;16.90;;;7.90;93.00;;;;;;5116653;28;20541;-73
2021/04/19 04:28:10;;;;;;;26.80;15.82;;;7.80;92.90;;;;;;5116941;28;20081;-73
2021/04/19 04:30:36;;;;;;;21.80;15.45;;;7.90;92.90;;;;;;5117160;27;20043;-72
2021/04/19 04:33:04;;;;;;;21.90;15.18;;;7.90;92.90;;;;;;5117315;28;20041;-73
2021/04/19 04:35:30;;;;;;;26.10;16.15;;;7.80;93.00;;;;;;5116794;28;20043;-73
2021/04/19 04:37:57;;;;;;;26.30;16.60;;;7.80;92.90;;;;;;5116068;28;20036;-73
2021/04/19 04:40:24;;;;;;;24.63;15.40;;;7.80;92.80;;;;;;5116653;28;20039;-72
2021/04/19 04:42:55;;;;;;;27.42;16.45;;;7.90;92.80;;;;;;5116904;28;20460;-72
2021/04/19 04:45:21;;;;;;;25.02;15.93;;;7.90;92.90;;;;;;5116272;28;20064;-71
2021/04/19 04:47:59;;;;;;;23.17;15.13;;;7.90;92.80;;;;;;5116422;28;20472;-71
2021/04/19 04:50:39;;;;;;;26.88;14.43;;;7.90;92.90;;;;;;5116870;28;20047;-72
2021/04/19 04:53:15;;;;;;;32.00;17.67;;;7.80;92.90;;;;;;5116762;28;20040;-72
2021/04/19 04:55:42;;;;;;;24.13;16.90;;;7.70;93.10;;;;;;5116253;28;20032;-71
2021/04/19 04:58:09;;;;;;;27.75;18.10;;;7.60;93.20;;;;;;5116902;28;20391;-71
2021/04/19 05:00:35;;;;;;;38.72;19.20;;;7.60;93.10;;;;;;5116772;28;20050;-71
2021/04/19 05:03:03;;;;;;;27.63;18.60;;;7.70;93.10;;;;;;5116244;28;20486;-71
2021/04/19 05:05:29;;;;;;;26.35;18.52;;;7.70;93.10;;;;;;5115855;28;20039;-71
2021/04/19 05:07:55;;;;;;;32.55;20.65;;;7.60;93.20;;;;;;5115108;28;20516;-71
2021/04/19 05:10:21;;;;;;;27.77;17.48;;;7.60;93.20;;;;;;5116656;28;20036;-71
2021/04/19 05:12:48;;;;;;;31.92;18.02;;;7.50;93.40;;;;;;5116061;28;20047;-71
2021/04/19 05:15:14;;;;;;;30.15;19.05;;;7.60;93.40;;;;;;5116007;28;20067;-71
2021/04/19 05:17:43;;;;;;;31.02;18.77;;;7.60;93.30;;;;;;5116185;27;20160;-71
2021/04/19 05:20:11;;;;;;;30.23;18.23;;;7.60;93.30;;;;;;5115564;28;20046;-71
2021/04/19 05:22:37;;;;;;;29.40;19.88;;;7.60;93.50;;;;;;5116271;28;20039;-71
2021/04/19 05:25:04;;;;;;;31.10;18.55;;;7.60;93.40;;;;;;5115695;27;20107;-71
2021/04/19 05:27:31;;;;;;;34.78;20.63;;;7.70;93.50;;;;;;5116253;28;20425;-71
2021/04/19 05:29:57;;;;;;;27.88;19.92;;;7.60;93.50;;;;;;5115888;28;20035;-72
2021/04/19 05:32:23;;;;;;;28.60;20.50;;;7.70;93.50;;;;;;5115729;28;20429;-71
2021/04/19 05:34:49;;;;;;;31.23;19.15;;;7.70;93.60;;;;;;5115445;28;20440;-72
2021/04/19 05:37:18;;;;;;;33.47;20.52;;;7.70;93.60;;;;;;5115505;28;20058;-72
2021/04/19 05:39:45;;;;;;;27.95;18.58;;;7.90;93.20;;;;;;5115277;27;20054;-72
2021/04/19 05:42:14;;;;;;;30.55;19.65;;;8.00;92.90;;;;;;5115613;28;20123;-72
2021/04/19 05:44:41;;;;;;;31.90;18.92;;;8.00;92.90;;;;;;5115163;28;20043;-72
2021/04/19 05:47:08;;;;;;;29.95;19.70;;;8.00;93.00;;;;;;5115267;28;20471;-71
2021/04/19 05:49:34;;;;;;;25.83;18.17;;;8.00;93.00;;;;;;5115609;28;20161;-72
2021/04/19 05:52:02;;;;;;;28.80;16.98;;;8.00;93.10;;;;;;5115677;28;20118;-71
2021/04/19 05:54:29;;;;;;;25.15;17.05;;;8.20;92.90;;;;;;5115315;28;20036;-72
2021/04/19 05:57:28;;;;;;;24.67;17.38;;;8.20;92.80;;;;;;5114993;28;20494;-71
2021/04/19 06:00:15;;;;;;;25.38;17.08;;;8.30;92.60;;;;;;5115319;28;20153;-72
2021/04/19 06:03:16;;;;;;;29.60;16.92;;;8.40;92.20;;;;;;5115733;28;20036;-72
2021/04/19 06:05:51;;;;;;;22.13;15.02;;;8.50;91.90;;;;;;5114666;28;20067;-71
2021/04/19 06:08:22;;;;;;;22.98;14.82;;;8.50;91.90;;;;;;5115158;28;20038;-71
2021/04/19 06:10:49;;;;;;;26.50;14.68;;;8.40;91.90;;;;;;5115227;28;20046;-71
2021/04/19 06:13:19;;;;;;;21.75;13.98;;;8.40;92.00;;;;;;5115321;28;20041;-71
2021/04/19 06:15:47;;;;;;;21.48;14.35;;;8.50;91.80;;;;;;5114576;28;20035;-71
2021/04/19 06:18:20;;;;;;;20.45;14.25;;;8.60;91.90;;;;;;5114774;28;20054;-72
2021/04/19 06:20:48;;;;;;;21.23;13.95;;;8.60;91.80;;;;;;5114603;28;20047;-72
2021/04/19 06:23:17;;;;;;;21.75;14.98;;;8.70;91.80;;;;;;5114943;28;20067;-71
2021/04/19 06:25:43;;;;;;;28.85;14.07;;;9.10;91.70;;;;;;5114158;28;20058;-72
2021/04/19 06:28:09;;;;;;;17.98;12.73;;;9.60;91.20;;;;;;5114504;28;20483;-72
2021/04/19 06:30:42;;;;;;;19.63;13.18;;;9.90;90.30;;;;;;5114300;28;20035;-71
2021/04/19 06:33:18;;;;;;;20.42;13.23;;;10.30;89.10;;;;;;5113819;28;20088;-71
2021/04/19 06:35:46;;;;;;;19.17;12.77;;;10.60;88.10;;;;;;5114378;28;20119;-71
2021/04/19 06:38:12;;;;;;;18.35;13.18;;;10.90;87.00;;;;;;5114283;28;20475;-72
2021/04/19 06:40:40;;;;;;;24.08;12.70;;;11.00;86.50;;;;;;5114604;28;20075;-72
2021/04/19 06:43:07;;;;;;;20.48;12.80;;;11.20;85.40;;;;;;5114928;28;20043;-71
2021/04/19 06:45:34;;;;;;;19.42;13.95;;;10.90;86.10;;;;;;5114139;28;20054;-72
2021/04/19 06:48:05;;;;;;;22.55;12.98;;;11.10;86.10;;;;;;5114358;28;20031;-72
2021/04/19 06:50:31;;;;;;;20.23;11.77;;;11.40;85.00;;;;;;5114646;28;20118;-71
2021/04/19 06:52:58;;;;;;;19.92;12.80;;;11.60;83.70;;;;;;5114678;28;20057;-72
2021/04/19 06:55:24;;;;;;;17.15;10.95;;;11.70;83.90;;;;;;5113845;28;20430;-72
2021/04/19 06:57:53;;;;;;;19.60;12.23;;;11.80;83.60;;;;;;5113969;28;20051;-72
2021/04/19 07:00:20;;;;;;;18.90;12.05;;;11.80;82.40;;;;;;5114191;28;20100;-72
2021/04/19 07:02:51;;;;;;;21.42;13.18;;;11.90;83.00;;;;;;5114249;28;20031;-71
2021/04/19 07:05:20;;;;;;;20.83;12.05;;;12.10;82.60;;;;;;5113621;28;20036;-72
2021/04/19 07:08:01;;;;;;;18.92;12.95;;;12.30;82.70;;;;;;5113671;28;20407;-72
2021/04/19 07:10:27;;;;;;;20.73;12.85;;;12.50;81.80;;;;;;5114188;28;20039;-72
2021/04/19 07:12:54;;;;;;;23.67;14.00;;;12.60;81.40;;;;;;5113942;28;20042;-72
2021/04/19 07:15:21;;;;;;;20.80;13.13;;;12.60;80.80;;;;;;5113599;28;20036;-72
2021/04/19 07:17:50;;;;;;;20.35;12.25;;;12.50;81.20;;;;;;5114113;28;20039;-72
2021/04/19 07:20:18;;;;;;;18.25;12.30;;;12.80;80.10;;;;;;5113695;28;20495;-72
2021/04/19 07:22:45;;;;;;;20.70;12.55;;;13.00;80.20;;;;;;5112772;28;20036;-72
2021/04/19 07:25:11;;;;;;;18.80;11.95;;;13.10;79.50;;;;;;5113897;28;20088;-72
2021/04/19 07:27:41;;;;;;;22.13;12.43;;;13.10;78.00;;;;;;5112724;28;20036;-72
2021/04/19 07:30:09;;;;;;;19.98;12.85;;;12.80;78.80;;;;;;5114047;28;20131;-72
2021/04/19 07:32:38;;;;;;;21.10;13.30;;;13.10;78.10;;;;;;5113920;28;20114;-72
2021/04/19 07:35:07;;;;;;;18.42;12.05;;;12.90;78.70;;;;;;5113511;28;20479;-72
2021/04/19 07:37:34;;;;;;;20.33;11.43;;;13.10;77.90;;;;;;5113518;28;20066;-72
2021/04/19 07:40:02;;;;;;;19.98;12.85;;;13.10;78.20;;;;;;5113588;28;20039;-72
2021/04/19 07:42:28;;;;;;;16.58;12.07;;;13.20;78.20;;;;;;5114071;28;20036;-72
2021/04/19 07:44:55;;;;;;;17.70;11.95;;;13.40;77.90;;;;;;5117035;28;20436;-72
2021/04/19 07:47:38;;;;;;;17.50;12.07;;;13.50;76.90;;;;;;5117768;28;20110;-72
2021/04/19 07:50:21;;;;;;;18.95;12.30;;;13.60;76.30;;;;;;5116871;28;20479;-72
2021/04/19 07:52:50;;;;;;;;;;;13.80;76.00;;;;;;5117911;28;20046;-72
2021/04/19 07:55:28;;;;;;;20.38;12.07;;;13.80;75.70;;;;;;5117397;28;19930;-72
2021/04/19 07:57:55;;;;;;;19.35;10.98;;;13.80;75.90;;;;;;5117759;28;20114;-71
2021/04/19 08:00:29;;;;;;;16.23;12.48;;;13.90;75.40;;;;;;5117877;28;20036;-72
2021/04/19 08:03:06;;;;;;;15.20;10.93;;;13.90;75.10;;;;;;5117684;28;20039;-72
2021/04/19 08:05:44;;;;;;;17.20;11.95;;;13.90;75.30;;;;;;5117321;28;20036;-72
2021/04/19 08:08:11;;;;;;;17.77;10.48;;;14.00;74.70;;;;;;5117045;28;20031;-72
2021/04/19 08:10:39;;;;;;;18.80;11.48;;;14.20;74.70;;;;;;5117409;28;20050;-72
2021/04/19 08:13:08;;;;;;;20.63;11.95;;;14.00;74.10;;;;;;5117616;28;20047;-72
2021/04/19 08:15:35;;;;;;;18.13;11.73;;;14.20;74.40;;;;;;5117188;28;20040;-72
2021/04/19 08:18:16;;;;;;;19.88;12.43;;;14.20;74.00;;;;;;5117186;28;20043;-72
2021/04/19 08:21:00;;;;;;;14.70;11.50;;;14.10;74.30;;;;;;5117210;27;20487;-71
2021/04/19 08:23:26;;;;;;;17.88;11.65;;;13.90;75.30;;;;;;5117662;28;20043;-71
2021/04/19 08:25:53;;;;;;;15.23;11.43;;;13.80;76.10;;;;;;5116933;27;20040;-72
2021/04/19 08:28:21;;;;;;;15.95;11.27;;;14.00;76.10;;;;;;5117459;28;20352;-71
2021/04/19 08:30:49;;;;;;;14.35;11.70;;;13.90;75.90;;;;;;5117422;28;20111;-71
2021/04/19 08:33:16;;;;;;;15.52;10.98;;;14.20;74.80;;;;;;5117678;28;20119;-72
2021/04/19 08:35:44;;;;;;;17.70;11.82;;;14.30;74.70;;;;;;5116820;28;20092;-72
2021/04/19 08:38:11;;;;;;;18.05;11.30;;;14.50;74.40;;;;;;5116892;28;20115;-72
2021/04/19 08:40:39;;;;;;;15.93;12.05;;;14.60;73.80;;;;;;5116995;28;20047;-72
2021/04/19 08:43:11;;;;;;;17.40;11.60;;;14.60;73.60;;;;;;5117207;28;20040;-72
2021/04/19 08:45:41;;;;;;;16.13;12.00;;;14.70;73.20;;;;;;5116344;28;20066;-72
2021/04/19 08:48:14;;;;;;;24.75;12.75;;;14.80;72.60;;;;;;5116576;28;20110;-72
2021/04/19 08:50:41;;;;;;;19.20;11.48;;;14.80;72.60;;;;;;5116559;28;20097;-72
2021/04/19 08:53:09;;;;;;;17.40;12.77;;;14.90;72.90;;;;;;5116808;28;20054;-72
2021/04/19 08:55:36;;;;;;;16.85;11.88;;;14.90;73.50;;;;;;5115321;28;20059;-72
2021/04/19 08:58:09;;;;;;;22.85;13.23;;;15.10;71.90;;;;;;5116224;28;20071;-72
2021/04/19 09:00:37;;;;;;;22.83;13.05;;;15.00;72.30;;;;;;5116246;28;20066;-72
2021/04/19 09:03:03;;;;;;;19.67;12.75;;;14.90;72.80;;;;;;5116175;28;20036;-73
2021/04/19 09:05:29;;;;;;;18.80;12.25;;;14.80;73.00;;;;;;5115850;27;20062;-72
2021/04/19 09:08:21;;;;;;;21.38;14.15;;;14.90;72.60;;;;;;5115261;28;20097;-71
2021/04/19 09:11:06;;;;;;;24.85;16.88;;;14.90;72.20;;;;;;5116683;28;20040;-72
2021/04/19 09:13:42;;;;;;;24.67;18.02;;;14.30;73.00;;;;;;5116513;28;20479;-72
2021/04/19 09:16:24;;;;;;;25.30;17.52;;;14.50;73.50;;;;;;5115704;28;20036;-72
2021/04/19 09:18:52;;;;;;;26.60;17.67;;;14.20;74.40;;;;;;5115879;28;20035;-72
2021/04/19 09:21:42;;;;;;;27.50;17.52;;;13.90;75.90;;;;;;5116482;28;20076;-72
2021/04/19 09:24:10;;;;;;;27.30;17.63;;;13.70;76.30;;;;;;5115819;28;20381;-72
2021/04/19 09:27:02;;;;;;;24.80;17.08;;;13.60;76.40;;;;;;5115460;28;20039;-74
2021/04/19 09:29:28;;;;;;;24.73;17.70;;;13.00;79.00;;;;;;5112960;27;20098;-73
2021/04/19 09:32:18;;;;;;;26.65;18.67;;;12.90;79.70;;;;;;5115927;28;20483;-73
2021/04/19 09:34:47;;;;;;;25.50;18.55;;;12.60;80.80;;;;;;5113989;28;20452;-72
2021/04/19 09:37:18;;;;;;;26.42;18.23;;;12.40;81.20;;;;;;5115777;28;20036;-73
2021/04/19 09:39:52;;;;;;;31.17;21.05;;;12.30;81.90;;;;;;5115580;28;20488;-73
2021/04/19 09:42:37;;;;;;;32.65;20.98;;;12.20;82.50;;;;;;5115518;28;20049;-72
2021/04/19 09:45:04;;;;;;;30.52;20.08;;;12.20;82.50;;;;;;5114977;28;20552;-72
2021/04/19 09:47:50;;;;;;;34.47;21.17;;;12.10;83.20;;;;;;5115852;28;20032;-72
2021/04/19 09:50:22;;;;;;;36.05;22.05;;;12.00;83.30;;;;;;5115859;28;20043;-72
2021/04/19 09:52:53;;;;;;;37.90;21.63;;;12.00;83.80;;;;;;5115293;28;20039;-72
2021/04/19 09:55:21;;;;;;;33.67;22.42;;;12.30;83.10;;;;;;5115093;28;20115;-72
2021/04/19 09:57:48;;;;;;;35.22;23.05;;;12.30;82.40;;;;;;5115058;28;20038;-73
2021/04/19 10:00:16;;;;;;;30.38;20.65;;;12.30;83.50;;;;;;5114911;28;20087;-73
2021/04/19 10:03:11;;;;;;;34.25;20.65;;;12.40;83.10;;;;;;5114002;28;20036;-73
2021/04/19 10:05:40;;;;;;;30.67;18.55;;;12.80;81.90;;;;;;5105764;28;20050;-71
2021/04/19 10:08:08;;;;;;;33.85;20.30;;;12.80;81.10;;;;;;5114836;28;20040;-72
2021/04/19 10:10:35;;;;;;;31.08;20.92;;;12.60;81.90;;;;;;5115561;28;20039;-73
2021/04/19 10:13:01;;;;;;;33.30;20.65;;;12.70;82.20;;;;;;5115616;28;20107;-72
2021/04/19 10:15:27;;;;;;;29.75;18.52;;;12.70;82.00;;;;;;5114220;27;20131;-73
2021/04/19 10:17:53;;;;;;;31.98;20.65;;;12.60;81.40;;;;;;5114645;28;20149;-73
2021/04/19 10:20:25;;;;;;;33.95;20.80;;;12.60;82.20;;;;;;5114413;28;20032;-73
2021/04/19 10:23:09;;;;;;;35.35;21.20;;;12.60;82.60;;;;;;5114071;28;20036;-73
2021/04/19 10:25:47;;;;;;;31.50;21.27;;;12.60;82.30;;;;;;5113799;28;20166;-73
2021/04/19 10:28:32;;;;;;;29.38;21.45;;;12.40;82.90;;;;;;5115199;28;20050;-73
2021/04/19 10:31:11;;;;;;;30.42;19.65;;;12.30;83.30;;;;;;5115010;28;20039;-73
2021/04/19 10:36:56;;;;;;;33.70;21.42;;;12.10;83.10;;;;;;5113749;27;20059;-73
2021/04/19 10:39:27;;;;;;;34.33;21.85;;;12.30;83.20;;;;;;5114930;28;20036;-73
2021/04/19 10:42:00;;;;;;;35.63;21.25;;;12.30;82.70;;;;;;5114245;28;20479;-73
2021/04/19 10:44:51;;;;;;;30.63;20.45;;;12.50;81.80;;;;;;5114525;28;20040;-74
2021/04/19 10:47:30;;;;;;;33.45;22.67;;;12.30;83.10;;;;;;5110337;28;20039;-73
2021/04/19 10:49:56;;;;;;;34.00;22.55;;;12.40;82.80;;;;;;5114315;28;20036;-73
2021/04/19 10:52:22;;;;;;;35.25;21.80;;;12.40;82.60;;;;;;5114496;27;20066;-73
2021/04/19 10:54:48;;;;;;;32.97;22.13;;;12.40;83.20;;;;;;5113755;28;20065;-74
2021/04/19 10:57:40;;;;;;;33.88;21.23;;;12.40;82.20;;;;;;5114228;28;20151;-73
2021/04/19 11:00:06;;;;;;;32.05;19.55;;;12.50;82.50;;;;;;5112044;27;20466;-73
2021/04/19 11:02:32;;;;;;;30.95;19.75;;;12.60;82.50;;;;;;5113977;28;20066;-74
2021/04/19 11:04:59;;;;;;;31.25;20.42;;;12.70;80.40;;;;;;5113655;28;20491;-73
2021/04/19 11:07:26;;;;;;;30.38;19.92;;;12.60;79.80;;;;;;5113656;28;20495;-73
2021/04/19 11:10:17;;;;;;;31.92;20.17;;;12.90;79.70;;;;;;5113852;28;20468;-71
2021/04/19 11:13:06;;;;;;;31.55;19.45;;;13.00;79.20;;;;;;5114177;28;20047;-72
2021/04/19 11:15:36;;;;;;;32.92;19.80;;;13.30;78.30;;;;;;5113617;28;20446;-72
2021/04/19 11:18:18;;;;;;;31.33;22.13;;;13.30;77.30;;;;;;5113228;28;20127;-72
2021/04/19 11:20:45;;;;;;;27.52;19.48;;;13.40;76.80;;;;;;5113905;28;20040;-72
2021/04/19 11:23:22;;;;;;;35.08;22.83;;;13.40;77.30;;;;;;5114079;28;20043;-72
2021/04/19 11:25:48;;;;;;;32.92;21.27;;;13.70;77.40;;;;;;5113310;28;20040;-72
2021/04/19 11:28:23;;;;;;;30.52;21.73;;;13.70;76.30;;;;;;5114372;28;20111;-72
2021/04/19 11:30:52;;;;;;;30.45;20.55;;;13.90;75.40;;;;;;5113528;28;20088;-72
2021/04/19 11:33:28;;;;;;;33.35;20.30;;;13.80;75.00;;;;;;5113805;28;20035;-72
2021/04/19 11:36:02;;;;;;;29.25;19.90;;;14.00;75.20;;;;;;5113247;28;20119;-73
2021/04/19 11:38:28;;;;;;;28.98;21.40;;;13.90;74.80;;;;;;5113584;28;20085;-73
2021/04/19 11:41:03;;;;;;;30.55;21.48;;;13.80;75.20;;;;;;5112189;28;20040;-73
2021/04/19 11:43:34;;;;;;;28.35;19.50;;;13.70;76.20;;;;;;5113760;28;20101;-72
2021/04/19 11:46:00;;;;;;;30.52;20.27;;;13.90;76.70;;;;;;5113538;28;20093;-73
2021/04/19 11:48:27;;;;;;;31.70;22.23;;;14.10;76.10;;;;;;5112540;28;20361;-71
2021/04/19 11:50:53;;;;;;;34.30;23.27;;;14.10;75.00;;;;;;5113819;28;20403;-72
2021/04/19 11:53:23;;;;;;;29.50;20.63;;;14.40;75.00;;;;;;5113570;28;20036;-72
2021/04/19 11:55:50;;;;;;;32.72;21.40;;;14.30;74.10;;;;;;5112774;28;20036;-70
2021/04/19 11:58:15;;;;;;;25.10;18.95;;;14.30;73.80;;;;;;5113100;28;20372;-72
2021/04/19 12:00:41;;;;;;;27.90;19.17;;;14.30;74.10;;;;;;5113361;28;20039;-73
2021/04/19 12:03:07;;;;;;;28.35;18.92;;;14.10;73.40;;;;;;5113161;28;20042;-73
2021/04/19 12:05:32;;;;;;;31.45;20.92;;;14.10;73.60;;;;;;5113212;28;20035;-73
2021/04/19 12:07:59;;;;;;;28.67;19.85;;;13.90;73.80;;;;;;5111684;28;20499;-71
2021/04/19 12:10:25;;;;;;;28.52;18.77;;;14.10;73.90;;;;;;5113258;28;20035;-71
2021/04/19 12:12:50;;;;;;;32.95;17.95;;;14.20;73.70;;;;;;5112644;28;20092;-73
2021/04/19 12:15:16;;;;;;;25.60;16.90;;;14.10;73.80;;;;;;5111739;28;20031;-73
2021/04/19 12:17:42;;;;;;;24.95;18.20;;;14.10;72.50;;;;;;5112949;27;20056;-73
2021/04/19 12:20:08;;;;;;;31.08;19.70;;;14.00;73.00;;;;;;5112997;28;20039;-73
2021/04/19 12:22:33;;;;;;;27.58;19.02;;;13.90;73.50;;;;;;5113412;28;20486;-73
2021/04/19 12:25:00;;;;;;;26.75;18.83;;;13.90;73.30;;;;;;5113457;28;20035;-73
2021/04/19 12:27:25;;;;;;;29.60;20.30;;;13.80;73.30;;;;;;5112349;28;20039;-73
2021/04/19 12:29:51;;;;;;;28.08;19.30;;;13.80;74.00;;;;;;5113197;28;20046;-72
2021/04/19 12:32:17;;;;;;;27.90;18.52;;;13.80;73.80;;;;;;5117391;28;20042;-73
2021/04/19 12:34:42;;;;;;;23.50;16.95;;;13.80;73.90;;;;;;5117015;28;20074;-73
2021/04/19 12:37:08;;;;;;;27.83;19.33;;;14.00;73.30;;;;;;5116640;28;20035;-72
2021/04/19 12:39:34;;;;;;;23.40;16.08;;;14.10;72.60;;;;;;5116919;28;20410;-73
2021/04/19 12:42:00;;;;;;;23.02;16.73;;;14.10;72.70;;;;;;5116603;28;20039;-73
2021/04/19 12:44:26;;;;;;;27.83;15.48;;;14.10;72.30;;;;;;5116829;28;20380;-73
2021/04/19 12:46:52;;;;;;;22.58;15.63;;;14.20;72.00;;;;;;5117028;28;20548;-73
2021/04/19 12:49:20;;;;;;;26.85;17.27;;;14.20;71.50;;;;;;5116033;28;20517;-73